createdAt,value
2022-08-10T00:01:10.622Z,46.38
2022-08-10T00:03:43.492Z,46.09
2022-08-10T00:06:13.647Z,46.19
2022-08-10T00:08:43.987Z,46.16
2022-08-10T00:11:15.477Z,46.41
2022-08-10T00:13:47.312Z,46.35
2022-08-10T00:16:17.540Z,45.87
2022-08-10T00:18:50.347Z,46.30
2022-08-10T00:21:20.553Z,46.51
2022-08-10T00:23:50.762Z,46.74
2022-08-10T00:26:20.952Z,47.44
2022-08-10T00:28:52.355Z,47.51
2022-08-10T00:31:22.760Z,47.57
2022-08-10T00:33:55.554Z,47.41
2022-08-10T00:36:25.789Z,47.46
2022-08-10T00:38:55.906Z,47.62
2022-08-10T00:41:26.064Z,47.61
2022-08-10T00:43:56.207Z,47.86
2022-08-10T00:46:26.469Z,47.98
2022-08-10T00:49:00.696Z,47.78
2022-08-10T00:51:40.192Z,47.77
2022-08-10T00:54:24.524Z,47.09
2022-08-10T00:57:16.584Z,47.17
2022-08-10T00:59:58.504Z,47.46
2022-08-10T01:02:32.519Z,47.27
2022-08-10T01:05:09.682Z,47.41
2022-08-10T01:07:56.716Z,47.63
2022-08-10T01:10:43.712Z,47.86
2022-08-10T01:13:21.270Z,47.88
2022-08-10T01:16:00.938Z,48.05
2022-08-10T01:18:43.499Z,48.84
2022-08-10T01:21:57.392Z,49.07
2022-08-10T01:25:24.123Z,48.73
2022-08-10T01:28:05.701Z,49.15
2022-08-10T01:30:42.313Z,49.66
2022-08-10T01:33:28.803Z,49.20
2022-08-10T01:36:11.546Z,49.03
2022-08-10T01:38:46.250Z,49.69
2022-08-10T01:41:25.996Z,49.59
2022-08-10T01:44:03.593Z,49.43
2022-08-10T01:46:39.139Z,49.48
2022-08-10T01:49:10.668Z,49.49
2022-08-10T01:51:47.368Z,49.48
2022-08-10T01:54:22.768Z,49.37
2022-08-10T01:56:59.004Z,49.40
2022-08-10T01:59:35.685Z,49.00
2022-08-10T02:02:12.695Z,49.13
2022-08-10T02:04:49.336Z,49.63
2022-08-10T02:07:25.743Z,49.87
2022-08-10T02:09:59.629Z,49.87
2022-08-10T02:12:34.522Z,49.77
2022-08-10T02:15:10.400Z,49.75
2022-08-10T02:17:59.431Z,49.91
2022-08-10T02:20:37.066Z,50.33
2022-08-10T02:23:12.453Z,50.10
2022-08-10T02:25:44.775Z,49.98
2022-08-10T02:28:27.520Z,50.22
2022-08-10T02:31:06.971Z,50.38
2022-08-10T02:33:57.348Z,50.65
2022-08-10T02:36:34.005Z,50.67
2022-08-10T02:39:08.183Z,51.00
2022-08-10T02:45:14.339Z,51.47
2022-08-10T02:45:25.766Z,51.22
2022-08-10T02:47:52.311Z,51.39
2022-08-10T02:50:30.700Z,51.22
2022-08-10T02:53:08.596Z,51.28
2022-08-10T02:56:04.965Z,51.85
2022-08-10T02:58:41.390Z,51.98
2022-08-10T03:01:17.346Z,51.98
2022-08-10T03:03:51.834Z,52.29
2022-08-10T03:06:29.605Z,52.66
2022-08-10T03:09:00.778Z,52.52
2022-08-10T03:12:35.660Z,52.19
2022-08-10T03:14:25.904Z,52.29
2022-08-10T03:16:58.671Z,52.31
2022-08-10T03:20:35.511Z,52.48
2022-08-10T03:22:23.878Z,52.53
2022-08-10T03:24:56.505Z,52.76
2022-08-10T03:27:27.960Z,52.30
2022-08-10T03:30:28.728Z,52.45
2022-08-10T03:32:50.552Z,52.49
2022-08-10T03:35:24.854Z,52.60
2022-08-10T03:37:59.681Z,52.87
2022-08-10T03:40:46.165Z,53.09
2022-08-10T03:43:20.990Z,53.26
2022-08-10T03:45:56.824Z,53.23
2022-08-10T03:48:44.772Z,52.92
2022-08-10T03:51:20.565Z,53.73
2022-08-10T03:54:05.663Z,53.56
2022-08-10T03:56:42.076Z,53.47
2022-08-10T03:59:14.846Z,53.34
2022-08-10T04:02:41.502Z,53.50
2022-08-10T04:04:36.994Z,53.33
2022-08-10T04:07:08.544Z,53.33
2022-08-10T04:09:43.132Z,53.81
2022-08-10T04:12:25.180Z,53.46
2022-08-10T04:14:55.340Z,52.67
2022-08-10T04:18:03.362Z,52.63
2022-08-10T04:20:23.163Z,52.72
2022-08-10T04:22:56.348Z,52.02
2022-08-10T04:25:30.374Z,52.09
2022-08-10T04:28:03.202Z,52.10
2022-08-10T04:30:35.336Z,52.52
2022-08-10T04:33:08.691Z,52.21
2022-08-10T04:35:40.415Z,52.71
2022-08-10T04:38:12.952Z,52.38
2022-08-10T04:40:46.378Z,52.57
2022-08-10T04:43:16.792Z,52.34
2022-08-10T04:45:51.687Z,52.64
2022-08-10T04:48:42.450Z,52.39
2022-08-10T04:51:19.531Z,53.12
2022-08-10T04:54:03.748Z,52.63
2022-08-10T04:56:41.222Z,52.34
2022-08-10T04:59:13.765Z,52.61
2022-08-10T05:02:28.434Z,52.96
2022-08-10T05:04:38.970Z,53.10
2022-08-10T05:07:16.878Z,53.57
2022-08-10T05:10:04.735Z,53.21
2022-08-10T05:12:40.812Z,53.46
2022-08-10T05:15:13.971Z,53.50
2022-08-10T05:18:08.415Z,53.47
2022-08-10T05:20:36.341Z,52.73
2022-08-10T05:23:07.444Z,52.30
2022-08-10T05:25:38.276Z,52.94
2022-08-10T05:28:11.229Z,52.53
2022-08-10T05:30:41.531Z,52.07
2022-08-10T05:33:11.780Z,52.39
2022-08-10T05:35:57.672Z,51.52
2022-08-10T05:38:30.350Z,51.26
2022-08-10T05:41:00.745Z,51.65
2022-08-10T05:43:33.660Z,51.17
2022-08-10T05:46:17.006Z,50.75
2022-08-10T05:48:59.423Z,50.80
2022-08-10T05:51:32.235Z,50.13
2022-08-10T05:54:06.484Z,50.08
2022-08-10T05:56:56.527Z,49.28
2022-08-10T06:00:10.794Z,48.96
2022-08-10T06:02:35.032Z,48.27
2022-08-10T06:05:13.205Z,49.09
2022-08-10T06:07:49.834Z,48.38
2022-08-10T06:10:32.687Z,48.68
2022-08-10T06:13:29.634Z,48.27
2022-08-10T06:16:13.629Z,47.81
2022-08-10T06:18:45.398Z,47.46
2022-08-10T06:21:16.553Z,46.99
2022-08-10T06:23:47.736Z,46.17
2022-08-10T06:26:21.416Z,45.69
2022-08-10T06:29:02.807Z,45.62
2022-08-10T06:31:48.031Z,45.53
2022-08-10T06:34:25.826Z,44.98
2022-08-10T06:36:58.400Z,44.82
2022-08-10T06:39:36.789Z,44.52
2022-08-10T06:42:20.280Z,44.14
2022-08-10T06:45:01.085Z,44.06
2022-08-10T06:47:44.753Z,43.34
2022-08-10T06:50:44.979Z,43.61
2022-08-10T06:53:20.364Z,43.29
2022-08-10T06:55:57.306Z,42.42
2022-08-10T06:58:32.323Z,42.24
2022-08-10T07:01:05.571Z,42.58
2022-08-10T07:03:46.108Z,41.72
2022-08-10T07:06:19.950Z,41.27
2022-08-10T07:08:52.139Z,40.17
2022-08-10T07:11:24.226Z,40.11
2022-08-10T07:14:14.626Z,39.29
2022-08-10T07:16:50.851Z,38.56
2022-08-10T07:19:26.867Z,38.16
2022-08-10T07:21:57.971Z,37.82
2022-08-10T07:24:33.037Z,37.13
2022-08-10T07:27:04.707Z,36.44
2022-08-10T07:29:53.942Z,36.63
2022-08-10T07:32:26.715Z,36.79
2022-08-10T07:35:00.900Z,36.84
2022-08-10T07:37:33.737Z,36.20
2022-08-10T07:40:07.777Z,35.66
2022-08-10T07:42:45.143Z,35.32
2022-08-10T07:45:16.389Z,34.62
2022-08-10T07:47:55.252Z,33.71
2022-08-10T07:50:35.932Z,33.32
2022-08-10T07:53:07.811Z,33.47
2022-08-10T07:56:04.785Z,32.71
2022-08-10T07:58:33.506Z,32.64
2022-08-10T08:01:04.437Z,31.89
2022-08-10T08:03:36.096Z,31.54
2022-08-10T08:06:12.004Z,31.54
2022-08-10T08:08:45.846Z,31.63
2022-08-10T08:11:26.262Z,31.49
2022-08-10T08:13:58.429Z,31.38
2022-08-10T08:16:29.328Z,30.98
2022-08-10T08:24:05.896Z,30.29
2022-08-10T08:24:46.509Z,30.26
2022-08-10T08:27:19.859Z,30.01
2022-08-10T08:29:53.865Z,29.07
2022-08-10T08:32:28.697Z,28.36
2022-08-10T08:35:02.147Z,27.51
2022-08-10T08:38:32.172Z,26.66
2022-08-10T08:40:33.642Z,25.57
2022-08-10T08:43:31.363Z,24.21
2022-08-10T08:46:33.376Z,23.32
2022-08-10T08:50:08.234Z,22.99
2022-08-10T08:52:59.397Z,21.76
2022-08-10T08:56:02.903Z,21.31
2022-08-10T08:58:50.782Z,20.51
2022-08-10T09:01:44.496Z,19.69
2022-08-10T09:04:43.878Z,19.70
2022-08-10T09:08:23.016Z,19.71
2022-08-10T09:11:04.281Z,18.98
2022-08-10T09:13:42.574Z,21.02
2022-08-10T09:16:28.022Z,22.16
2022-08-10T09:19:06.490Z,23.19
2022-08-10T09:22:13.095Z,24.32
2022-08-10T09:24:51.678Z,24.85
2022-08-10T09:27:35.232Z,23.66
2022-08-10T09:30:10.735Z,22.88
2022-08-10T09:36:14.962Z,23.53
2022-08-10T09:36:25.995Z,24.85
2022-08-10T09:38:55.731Z,25.99
2022-08-10T09:41:43.053Z,26.62
2022-08-10T09:44:31.026Z,26.85
2022-08-10T09:47:23.088Z,26.86
2022-08-10T09:50:25.691Z,27.49
2022-08-10T09:53:09.021Z,27.64
2022-08-10T09:56:17.634Z,28.54
2022-08-10T09:59:29.308Z,28.52
2022-08-10T10:02:03.457Z,29.36
2022-08-10T10:04:46.831Z,29.24
2022-08-10T10:07:29.620Z,29.56
2022-08-10T10:10:06.726Z,29.03
2022-08-10T10:12:48.002Z,29.89
2022-08-10T10:15:33.599Z,29.89
2022-08-10T10:18:36.670Z,30.37
2022-08-10T10:21:12.270Z,30.32
2022-08-10T10:24:20.282Z,30.41
2022-08-10T10:26:59.205Z,30.49
2022-08-10T10:29:57.318Z,30.94
2022-08-10T10:32:45.149Z,31.21
2022-08-10T10:35:27.118Z,30.95
2022-08-10T10:38:02.722Z,31.12
2022-08-10T10:40:50.847Z,30.96
2022-08-10T10:43:42.587Z,31.25
2022-08-10T10:46:32.702Z,31.06
2022-08-10T10:49:09.501Z,30.97
2022-08-10T10:51:53.014Z,30.75
2022-08-10T10:54:35.201Z,30.57
2022-08-10T10:57:15.126Z,30.76
2022-08-10T10:59:57.783Z,30.16
2022-08-10T11:02:48.741Z,29.89
2022-08-10T11:05:30.870Z,29.98
2022-08-10T11:08:14.531Z,29.65
2022-08-10T11:10:52.688Z,29.26
2022-08-10T11:14:24.951Z,29.04
2022-08-10T11:16:31.733Z,27.93
2022-08-10T11:19:16.580Z,27.74
2022-08-10T11:21:58.462Z,27.58
2022-08-10T11:24:49.826Z,27.02
2022-08-10T11:27:34.531Z,27.10
2022-08-10T11:30:10.730Z,27.21
2022-08-10T11:32:54.419Z,27.17
2022-08-10T11:35:35.290Z,26.50
2022-08-10T11:38:31.668Z,26.06
2022-08-10T11:42:10.323Z,26.01
2022-08-10T11:44:23.100Z,26.69
2022-08-10T11:47:04.687Z,26.51
2022-08-10T11:49:42.761Z,25.99
2022-08-10T11:52:19.880Z,25.46
2022-08-10T11:54:56.341Z,25.36
2022-08-10T11:57:53.366Z,24.87
2022-08-10T12:00:24.717Z,22.60
2022-08-10T12:03:05.757Z,20.59
2022-08-10T12:05:48.338Z,19.62
2022-08-10T12:10:03.451Z,20.92
2022-08-10T12:11:24.653Z,19.33
2022-08-10T12:14:20.704Z,19.58
2022-08-10T12:16:55.695Z,18.28
2022-08-10T12:19:58.725Z,18.75
2022-08-10T12:22:34.126Z,19.60
2022-08-10T12:25:09.502Z,19.81
2022-08-10T12:27:45.092Z,20.27
2022-08-10T12:30:21.036Z,20.81
2022-08-10T12:33:03.701Z,21.39
2022-08-10T12:35:56.062Z,21.48
2022-08-10T12:38:43.589Z,21.04
2022-08-10T12:41:43.635Z,21.70
2022-08-10T12:44:21.141Z,21.78
2022-08-10T12:47:10.361Z,22.39
2022-08-10T12:50:26.726Z,22.32
2022-08-10T12:53:00.275Z,20.71
2022-08-10T12:55:40.595Z,18.99
2022-08-10T12:59:00.333Z,17.34
2022-08-10T13:01:17.275Z,18.16
2022-08-10T13:04:23.099Z,18.51
2022-08-10T13:06:51.658Z,19.29
2022-08-10T13:09:25.998Z,20.18
2022-08-10T13:12:35.135Z,20.21
2022-08-10T13:14:59.265Z,20.22
2022-08-10T13:17:40.024Z,20.57
2022-08-10T13:20:24.240Z,20.93
2022-08-10T13:22:58.113Z,20.07
2022-08-10T13:25:34.974Z,19.38
2022-08-10T13:28:37.489Z,19.79
2022-08-10T13:31:11.468Z,20.59
2022-08-10T13:34:40.260Z,21.40
2022-08-10T13:36:46.702Z,22.07
2022-08-10T13:39:21.307Z,21.99
2022-08-10T13:41:54.305Z,22.30
2022-08-10T13:44:38.372Z,22.20
2022-08-10T13:47:10.335Z,22.94
2022-08-10T13:49:50.297Z,22.67
2022-08-10T13:52:26.702Z,22.59
2022-08-10T13:55:00.718Z,22.09
2022-08-10T13:57:33.322Z,22.04
2022-08-10T14:00:34.760Z,22.26
2022-08-10T14:03:04.421Z,20.38
2022-08-10T14:05:38.959Z,19.27
2022-08-10T14:08:16.963Z,20.45
2022-08-10T14:11:04.097Z,20.96
2022-08-10T14:13:45.900Z,21.54
2022-08-10T14:16:17.270Z,21.83
2022-08-10T14:18:48.579Z,21.96
2022-08-10T14:21:19.271Z,22.44
2022-08-10T14:23:54.071Z,22.62
2022-08-10T14:26:28.326Z,23.17
2022-08-10T14:29:06.870Z,23.27
2022-08-10T14:32:00.377Z,23.57
2022-08-10T14:36:16.051Z,23.86
2022-08-10T14:37:38.226Z,23.32
2022-08-10T14:40:17.753Z,23.69
2022-08-10T14:42:53.755Z,23.69
2022-08-10T14:45:29.116Z,24.08
2022-08-10T14:48:04.064Z,24.03
2022-08-10T14:50:36.324Z,23.91
2022-08-10T14:53:12.146Z,22.24
2022-08-10T14:55:57.777Z,20.88
2022-08-10T14:58:36.050Z,19.08
2022-08-10T15:01:11.013Z,18.15
2022-08-10T15:04:00.931Z,17.27
2022-08-10T15:06:41.866Z,16.41
2022-08-10T15:09:19.401Z,16.08
2022-08-10T15:12:15.856Z,15.96
2022-08-10T15:14:49.918Z,16.48
2022-08-10T15:17:28.702Z,17.84
2022-08-10T15:20:14.407Z,18.04
2022-08-10T15:22:50.941Z,19.57
2022-08-10T15:25:25.615Z,20.33
2022-08-10T15:28:06.381Z,20.99
2022-08-10T15:30:43.156Z,21.78
2022-08-10T15:33:59.334Z,21.83
2022-08-10T15:36:37.040Z,22.77
2022-08-10T15:40:05.414Z,22.81
2022-08-10T15:42:08.685Z,23.56
2022-08-10T15:44:45.996Z,23.58
2022-08-10T15:47:23.362Z,23.67
2022-08-10T15:50:01.899Z,24.15
2022-08-10T15:52:39.797Z,24.07
2022-08-10T15:55:41.466Z,24.58
2022-08-10T15:58:38.774Z,24.54
2022-08-10T16:02:03.975Z,25.31
2022-08-10T16:04:13.522Z,25.35
2022-08-10T16:06:50.351Z,25.60
2022-08-10T16:10:10.491Z,25.67
2022-08-10T16:12:29.596Z,26.00
2022-08-10T16:15:07.918Z,25.36
2022-08-10T16:17:54.449Z,25.60
2022-08-10T16:20:31.548Z,25.76
2022-08-10T16:23:06.977Z,25.60
2022-08-10T16:25:47.870Z,26.05
2022-08-10T16:28:24.600Z,26.27
2022-08-10T16:30:58.270Z,26.42
2022-08-10T16:33:53.071Z,26.59
2022-08-10T16:36:26.634Z,27.00
2022-08-10T16:38:58.674Z,26.53
2022-08-10T16:42:04.506Z,26.54
2022-08-10T16:44:23.262Z,26.29
2022-08-10T16:46:54.661Z,25.78
2022-08-10T16:49:29.372Z,25.48
2022-08-10T16:52:00.437Z,25.94
2022-08-10T16:54:32.408Z,26.28
2022-08-10T16:57:09.042Z,26.61
2022-08-10T16:59:42.353Z,27.52
2022-08-10T17:02:20.525Z,27.52
2022-08-10T17:04:55.810Z,27.51
2022-08-10T17:07:30.878Z,28.23
2022-08-10T17:10:07.892Z,27.31
2022-08-10T17:12:42.169Z,27.73
2022-08-10T17:15:13.921Z,27.63
2022-08-10T17:17:50.147Z,27.75
2022-08-10T17:20:30.247Z,27.95
2022-08-10T17:23:06.694Z,27.67
2022-08-10T17:25:49.016Z,27.89
2022-08-10T17:28:35.886Z,27.54
2022-08-10T17:31:24.258Z,27.36
2022-08-10T17:34:18.131Z,26.85
2022-08-10T17:37:01.324Z,27.59
2022-08-10T17:39:38.607Z,27.10
2022-08-10T17:42:12.536Z,27.37
2022-08-10T17:44:48.491Z,27.84
2022-08-10T17:47:19.656Z,28.00
2022-08-10T17:49:51.342Z,28.19
2022-08-10T17:52:29.202Z,28.20
2022-08-10T17:55:04.430Z,28.22
2022-08-10T17:57:40.284Z,28.35
2022-08-10T18:00:15.480Z,28.15
2022-08-10T18:02:50.014Z,28.68
2022-08-10T18:05:21.719Z,28.61
2022-08-10T18:07:57.469Z,28.63
2022-08-10T18:10:29.503Z,29.15
2022-08-10T18:13:01.221Z,29.29
2022-08-10T18:15:33.978Z,29.25
2022-08-10T18:18:06.577Z,29.51
2022-08-10T18:20:40.701Z,29.17
2022-08-10T18:23:14.648Z,29.26
2022-08-10T18:25:47.572Z,30.07
2022-08-10T18:28:22.269Z,29.80
2022-08-10T18:30:55.868Z,29.98
2022-08-10T18:33:31.517Z,30.22
2022-08-10T18:36:06.103Z,30.68
2022-08-10T18:38:43.176Z,30.84
2022-08-10T18:41:19.819Z,30.86
2022-08-10T18:44:07.071Z,31.32
2022-08-10T18:46:49.498Z,32.41
2022-08-10T18:49:29.659Z,32.83
2022-08-10T18:52:05.010Z,33.42
2022-08-10T18:54:47.372Z,33.70
2022-08-10T18:57:36.007Z,33.73
2022-08-10T19:00:13.529Z,33.67
2022-08-10T19:03:25.272Z,34.07
2022-08-10T19:06:14.932Z,34.87
2022-08-10T19:08:59.306Z,34.50
2022-08-10T19:11:54.654Z,35.06
2022-08-10T19:14:37.871Z,35.32
2022-08-10T19:17:18.643Z,35.63
2022-08-10T19:20:02.401Z,35.15
2022-08-10T19:22:44.889Z,35.46
2022-08-10T19:26:39.360Z,35.82
2022-08-10T19:28:31.015Z,36.07
2022-08-10T19:31:09.266Z,35.94
2022-08-10T19:34:11.392Z,36.04
2022-08-10T19:36:55.533Z,36.19
2022-08-10T19:39:50.849Z,36.48
2022-08-10T19:42:31.613Z,36.88
2022-08-10T19:45:56.192Z,36.94
2022-08-10T19:48:22.817Z,36.79
2022-08-10T19:51:00.814Z,36.67
2022-08-10T19:53:44.108Z,37.10
2022-08-10T19:56:36.948Z,37.56
2022-08-10T20:00:16.852Z,37.32
2022-08-10T20:02:25.176Z,37.72
2022-08-10T20:05:06.477Z,37.61
2022-08-10T20:07:45.313Z,37.80
2022-08-10T20:10:28.348Z,38.27
2022-08-10T20:13:12.104Z,38.58
2022-08-10T20:15:49.169Z,38.53
2022-08-10T20:18:29.263Z,39.05
2022-08-10T20:21:06.920Z,39.39
2022-08-10T20:23:39.038Z,39.18
2022-08-10T20:26:21.096Z,39.62
2022-08-10T20:29:07.735Z,39.38
2022-08-10T20:31:44.543Z,39.80
2022-08-10T20:34:25.085Z,40.13
2022-08-10T20:37:03.279Z,40.16
2022-08-10T20:39:51.418Z,40.39
2022-08-10T20:42:26.151Z,40.64
2022-08-10T20:45:07.184Z,40.59
2022-08-10T20:47:53.713Z,40.97
2022-08-10T20:50:38.920Z,40.79
2022-08-10T20:53:15.432Z,41.06
2022-08-10T20:55:54.954Z,41.63
2022-08-10T20:59:10.141Z,41.98
2022-08-10T21:02:06.819Z,42.07
2022-08-10T21:04:55.593Z,42.13
2022-08-10T21:08:08.232Z,42.21
2022-08-10T21:11:00.454Z,41.97
2022-08-10T21:14:06.399Z,41.90
2022-08-10T21:16:52.272Z,41.76
2022-08-10T21:19:53.804Z,42.37
2022-08-10T21:22:29.547Z,42.28
2022-08-10T21:25:07.740Z,41.86
2022-08-10T21:28:03.442Z,42.14
2022-08-10T21:30:57.745Z,42.30
2022-08-10T21:33:35.840Z,42.78
2022-08-10T21:36:12.920Z,42.45
2022-08-10T21:38:51.685Z,42.57
2022-08-10T21:41:58.227Z,42.17
2022-08-10T21:45:18.701Z,42.39
2022-08-10T21:48:30.281Z,42.20
2022-08-10T21:51:24.017Z,42.25
2022-08-10T21:54:19.953Z,42.52
2022-08-10T21:57:21.615Z,42.58
2022-08-10T22:00:13.760Z,42.75
2022-08-10T22:02:59.377Z,43.03
2022-08-10T22:05:47.703Z,43.10
2022-08-10T22:08:34.677Z,43.21
2022-08-10T22:11:20.262Z,43.24
2022-08-10T22:14:09.488Z,43.38
2022-08-10T22:17:02.738Z,43.56
2022-08-10T22:19:50.512Z,43.66
2022-08-10T22:22:44.802Z,42.90
2022-08-10T22:25:54.017Z,42.91
2022-08-10T22:28:37.155Z,43.82
2022-08-10T22:31:43.666Z,43.99
2022-08-10T22:35:04.376Z,44.20
2022-08-10T22:37:58.817Z,43.83
2022-08-10T22:40:50.611Z,43.94
2022-08-10T22:43:43.124Z,44.26
2022-08-10T22:46:35.849Z,44.31
2022-08-10T22:49:03.616Z,44.41
2022-08-10T22:51:55.562Z,44.58
2022-08-10T22:54:57.403Z,44.80
2022-08-10T22:57:40.218Z,44.87
2022-08-10T23:00:16.885Z,45.04
2022-08-10T23:02:58.321Z,45.51
2022-08-10T23:05:36.655Z,45.43
2022-08-10T23:08:30.073Z,45.34
2022-08-10T23:11:06.745Z,45.71
2022-08-10T23:13:42.012Z,45.61
2022-08-10T23:16:33.741Z,45.65
2022-08-10T23:19:11.169Z,45.98
2022-08-10T23:22:03.365Z,45.82
2022-08-10T23:24:40.610Z,45.27
2022-08-10T23:27:38.087Z,45.95
2022-08-10T23:30:10.880Z,45.61
2022-08-10T23:32:51.375Z,45.96
2022-08-10T23:36:30.535Z,45.95
2022-08-10T23:38:25.242Z,46.15
2022-08-10T23:40:59.130Z,45.23
2022-08-10T23:43:53.429Z,45.75
2022-08-10T23:46:26.402Z,45.82
2022-08-10T23:48:59.750Z,45.86
2022-08-10T23:51:38.778Z,46.05
2022-08-10T23:54:27.936Z,46.58
2022-08-10T23:57:02.278Z,46.14
2022-08-10T23:59:35.534Z,46.38
